Time;durP1;ratioP1;P1;durP2;ratioP2;P2;SDS_P1;SDS_P2;PMS_P1;PMS_P2;Temp;Humidity;BMP_temperature;BMP_pressure;BME280_temperature;BME280_humidity;BME280_pressure;Samples;Min_cycle;Max_cycle;Signal;HPM_P1;HPM_P2
2021/10/20 00:02:21;;;;;;;10.20;8.00;;;;;;;13.64;nan;101313.47;5093391;28;20031;-83
2021/10/20 00:04:47;;;;;;;11.55;8.63;;;;;;;13.63;nan;101316.44;5090598;28;20034;-84
2021/10/20 00:07:13;;;;;;;10.32;8.45;;;;;;;13.70;nan;101314.34;5108996;28;20081;-84
2021/10/20 00:09:38;;;;;;;10.30;8.10;;;;;;;13.70;nan;101311.66;5085528;28;20023;-83
2021/10/20 00:12:05;;;;;;;12.35;8.38;;;;;;;13.67;nan;101314.88;5092871;28;20032;-83
2021/10/20 00:14:30;;;;;;;12.40;8.30;;;;;;;13.68;nan;101306.53;5090737;28;20500;-83
2021/10/20 00:16:56;;;;;;;11.07;8.23;;;;;;;13.63;nan;101308.34;5096086;28;20038;-83
2021/10/20 00:19:21;;;;;;;13.98;8.95;;;;;;;13.65;nan;101306.25;5111918;28;20055;-83
2021/10/20 00:21:47;;;;;;;12.13;7.90;;;;;;;13.67;nan;101310.31;5093571;28;20024;-83
2021/10/20 00:24:13;;;;;;;10.52;8.18;;;;;;;13.60;nan;101299.72;5105505;28;20024;-83
2021/10/20 00:26:38;;;;;;;11.40;8.35;;;;;;;13.65;nan;101300.84;5088975;28;20015;-83
2021/10/20 00:29:04;;;;;;;12.80;7.95;;;;;;;13.59;nan;101292.72;5091874;28;20549;-84
2021/10/20 00:31:30;;;;;;;13.50;8.73;;;;;;;13.56;nan;101279.75;5092063;28;20031;-83
2021/10/20 00:33:55;;;;;;;10.80;8.63;;;;;;;13.58;nan;101285.69;5092680;28;20032;-84
2021/10/20 00:36:21;;;;;;;12.43;8.52;;;;;;;13.60;nan;101278.19;5092017;28;20070;-83
2021/10/20 00:38:46;;;;;;;13.80;8.80;;;;;;;13.52;nan;101281.34;5089640;28;20067;-84
2021/10/20 00:41:12;;;;;;;11.10;8.60;;;;;;;13.46;nan;101276.16;5088487;28;20024;-84
2021/10/20 00:43:38;;;;;;;10.77;8.20;;;;;;;13.41;nan;101276.91;5090954;28;20032;-84
2021/10/20 00:46:04;;;;;;;9.93;7.95;;;;;;;13.37;nan;101277.69;5098993;28;20039;-83
2021/10/20 00:48:30;;;;;;;9.85;7.63;;;;;;;13.40;nan;101277.97;5087457;28;20024;-84
2021/10/20 00:50:55;;;;;;;9.75;7.75;;;;;;;13.37;nan;101267.72;5107334;28;20023;-83
2021/10/20 00:53:21;;;;;;;12.73;8.70;;;;;;;13.44;nan;101267.50;5088740;28;20058;-83
2021/10/20 00:55:47;;;;;;;13.35;7.80;;;;;;;13.41;nan;101270.72;5087794;28;20028;-84
2021/10/20 00:58:13;;;;;;;9.27;7.18;;;;;;;13.44;nan;101256.75;5089530;28;20508;-83
2021/10/20 01:00:39;;;;;;;10.73;8.13;;;;;;;13.43;nan;101261.31;5087499;28;20452;-84
2021/10/20 01:03:05;;;;;;;11.55;8.10;;;;;;;13.38;nan;101255.91;5089256;28;20161;-84
2021/10/20 01:05:30;;;;;;;14.02;8.88;;;;;;;13.29;nan;101257.44;5103817;28;20398;-84
2021/10/20 01:07:56;;;;;;;11.73;8.00;;;;;;;13.19;nan;101249.25;5089232;28;20024;-83
2021/10/20 01:10:22;;;;;;;9.73;7.63;;;;;;;13.15;nan;101245.41;5103229;28;20032;-83
2021/10/20 01:12:47;;;;;;;11.60;8.00;;;;;;;13.12;nan;101241.34;5089484;28;20016;-83
2021/10/20 01:15:22;;;;;;;14.50;8.52;;;;;;;13.12;nan;101233.28;5101607;28;20028;-84
2021/10/20 01:17:48;;;;;;;11.93;8.07;;;;;;;13.11;nan;101228.16;5088679;28;20061;-82
2021/10/20 01:20:15;;;;;;;13.80;8.15;;;;;;;13.08;nan;101231.31;5086989;28;20121;-83
2021/10/20 01:22:41;;;;;;;13.38;7.43;;;;;;;13.04;nan;101219.44;5090678;28;20020;-83
2021/10/20 01:25:10;;;;;;;10.63;7.32;;;;;;;13.11;nan;101212.81;5088235;28;20436;-83
2021/10/20 01:27:36;;;;;;;12.20;8.13;;;;;;;13.04;nan;101200.63;5072113;28;20081;-83
2021/10/20 01:30:04;;;;;;;11.57;8.18;;;;;;;12.96;nan;101191.94;5087103;28;20052;-83
2021/10/20 01:32:30;;;;;;;10.10;7.75;;;;;;;12.96;nan;101181.19;5087872;28;20016;-83
2021/10/20 01:34:56;;;;;;;11.32;6.93;;;;;;;12.90;nan;101176.00;5103048;28;20030;-83
2021/10/20 01:37:24;;;;;;;13.45;8.52;;;;;;;12.84;nan;101180.50;5088384;28;20028;-84
2021/10/20 01:39:50;;;;;;;11.20;7.63;;;;;;;12.80;nan;101184.78;5087567;28;20027;-83
2021/10/20 01:42:16;;;;;;;11.25;7.97;;;;;;;12.82;nan;101173.75;5086105;28;20016;-84
2021/10/20 01:44:42;;;;;;;11.02;7.57;;;;;;;12.85;nan;101173.25;5089240;28;20519;-84
2021/10/20 01:47:08;;;;;;;10.75;8.13;;;;;;;12.85;nan;101168.69;5091361;28;20020;-83
2021/10/20 01:49:33;;;;;;;10.98;6.90;;;;;;;12.77;nan;101158.41;5089305;28;20132;-83
2021/10/20 01:51:59;;;;;;;11.55;7.45;;;;;;;12.86;nan;101159.56;5087097;28;20374;-84
2021/10/20 01:54:24;;;;;;;13.93;8.18;;;;;;;12.86;nan;101159.56;5091298;28;20578;-84
2021/10/20 01:56:50;;;;;;;12.27;7.50;;;;;;;12.89;nan;101153.66;5088784;28;20069;-84
2021/10/20 01:59:16;;;;;;;8.57;6.38;;;;;;;12.93;nan;101162.88;5104716;28;20073;-83
2021/10/20 02:01:42;;;;;;;10.65;7.80;;;;;;;12.92;nan;101152.34;5090568;28;20606;-83
2021/10/20 02:04:12;;;;;;;9.77;7.25;;;;;;;12.93;nan;101154.81;5088496;28;20024;-84
2021/10/20 02:06:37;;;;;;;12.50;7.15;;;;;;;12.89;nan;101140.22;5089288;28;20031;-83
2021/10/20 02:09:06;;;;;;;10.15;6.47;;;;;;;12.84;nan;101140.19;5089289;28;20028;-84
2021/10/20 02:11:33;;;;;;;11.38;7.22;;;;;;;12.80;nan;101141.75;5087481;28;20077;-84
2021/10/20 02:13:59;;;;;;;9.93;5.93;;;;;;;12.77;nan;101136.88;5091612;28;20117;-84
2021/10/20 02:16:24;;;;;;;11.20;7.28;;;;;;;12.82;nan;101138.81;5089091;28;20485;-84
2021/10/20 02:18:50;;;;;;;10.10;7.80;;;;;;;12.75;nan;101133.63;5088198;28;20111;-83
2021/10/20 02:21:16;;;;;;;10.85;5.90;;;;;;;12.73;nan;101125.00;5105992;28;20535;-83
2021/10/20 02:23:42;;;;;;;13.05;7.10;;;;;;;12.74;nan;101131.19;5088004;28;20020;-83
2021/10/20 02:26:07;;;;;;;6.75;5.35;;;;;;;12.71;nan;101119.06;5087816;28;20020;-83
2021/10/20 02:28:33;;;;;;;14.52;7.93;;;;;;;12.75;nan;101135.47;5104589;28;20024;-83
2021/10/20 02:30:58;;;;;;;12.90;8.35;;;;;;;12.74;nan;101123.09;5085469;28;20040;-83
2021/10/20 02:33:24;;;;;;;7.18;5.78;;;;;;;12.66;nan;101116.31;5087631;28;20111;-84
2021/10/20 02:35:50;;;;;;;12.38;7.80;;;;;;;12.65;nan;101125.44;5087454;28;20532;-83
2021/10/20 02:38:16;;;;;;;13.18;8.60;;;;;;;12.73;nan;101121.50;5085204;28;20028;-83
2021/10/20 02:40:41;;;;;;;13.23;8.40;;;;;;;12.73;nan;101114.22;5088499;28;20537;-83
2021/10/20 02:43:07;;;;;;;14.02;8.13;;;;;;;12.77;nan;101110.00;5087185;28;20523;-83
2021/10/20 02:45:32;;;;;;;13.15;8.38;;;;;;;12.76;nan;101116.44;5087845;28;20170;-83
2021/10/20 02:47:58;;;;;;;12.27;7.65;;;;;;;12.66;nan;101110.94;5084422;28;20051;-84
2021/10/20 02:50:28;;;;;;;13.48;8.88;;;;;;;12.67;nan;101110.69;5083692;28;20047;-83
2021/10/20 02:52:53;;;;;;;12.45;8.13;;;;;;;12.69;nan;101105.06;5084380;28;20019;-84
2021/10/20 02:55:19;;;;;;;13.38;7.00;;;;;;;12.60;nan;101101.22;5103161;28;20032;-83
2021/10/20 02:57:44;;;;;;;12.85;7.90;;;;;;;12.68;nan;101108.81;5087418;28;20020;-84
2021/10/20 03:00:10;;;;;;;9.70;6.55;;;;;;;12.55;nan;101101.13;5088248;28;20496;-84
2021/10/20 03:02:35;;;;;;;17.05;9.38;;;;;;;12.60;nan;101090.47;5081671;28;20048;-84
2021/10/20 03:05:01;;;;;;;17.60;8.85;;;;;;;12.61;nan;101092.09;5089555;28;20039;-85
2021/10/20 03:07:26;;;;;;;13.85;8.52;;;;;;;12.65;nan;101087.81;5087128;28;20032;-84
2021/10/20 03:09:52;;;;;;;15.57;8.35;;;;;;;12.59;nan;101086.97;5086346;28;20584;-83
2021/10/20 03:12:17;;;;;;;11.63;8.25;;;;;;;12.55;nan;101082.31;5085019;28;20066;-83
2021/10/20 03:14:43;;;;;;;17.42;9.27;;;;;;;12.58;nan;101082.66;5089259;28;20020;-83
2021/10/20 03:17:10;;;;;;;14.90;9.13;;;;;;;12.61;nan;101082.13;5088406;28;20035;-83
2021/10/20 03:19:35;;;;;;;15.10;8.93;;;;;;;12.59;nan;101070.84;5087336;28;20035;-82
2021/10/20 03:22:01;;;;;;;10.88;6.72;;;;;;;12.51;nan;101075.84;5085138;28;20020;-83
2021/10/20 03:24:26;;;;;;;15.75;10.20;;;;;;;12.53;nan;101068.31;5089254;28;20508;-83
2021/10/20 03:26:52;;;;;;;13.68;8.50;;;;;;;12.49;nan;101081.47;5086397;28;20020;-83
2021/10/20 03:29:18;;;;;;;16.00;9.80;;;;;;;12.55;nan;101077.75;5091736;28;20065;-83
2021/10/20 03:31:43;;;;;;;15.73;10.20;;;;;;;12.46;nan;101076.59;5088031;28;20543;-84
2021/10/20 03:34:09;;;;;;;17.52;10.00;;;;;;;12.46;nan;101073.09;5097031;28;20071;-83
2021/10/20 03:36:34;;;;;;;17.73;11.20;;;;;;;12.44;nan;101072.53;5107798;28;20031;-83
2021/10/20 03:39:00;;;;;;;16.02;9.80;;;;;;;12.40;nan;101066.88;5104986;28;20477;-83
2021/10/20 03:41:25;;;;;;;18.48;10.13;;;;;;;12.41;nan;101060.44;5088044;28;20111;-84
2021/10/20 03:43:51;;;;;;;18.58;10.52;;;;;;;12.37;nan;101065.47;5090184;28;20028;-83
2021/10/20 03:46:16;;;;;;;17.20;9.45;;;;;;;12.37;nan;101053.91;5098157;28;20020;-83
2021/10/20 03:48:42;;;;;;;19.90;10.82;;;;;;;12.44;nan;101053.72;5102904;28;20061;-83
2021/10/20 03:51:07;;;;;;;22.35;11.52;;;;;;;12.44;nan;101064.47;5104002;28;20035;-82
2021/10/20 03:53:33;;;;;;;16.65;9.57;;;;;;;12.35;nan;101062.22;5090610;28;20031;-83
2021/10/20 03:55:59;;;;;;;13.90;7.10;;;;;;;12.37;nan;101048.53;5106221;28;20028;-83
2021/10/20 03:58:24;;;;;;;19.48;10.20;;;;;;;12.38;nan;101048.28;5092836;28;20476;-84
2021/10/20 04:00:54;;;;;;;19.65;10.23;;;;;;;12.37;nan;101040.47;5076923;28;20061;-83
2021/10/20 04:03:19;;;;;;;15.88;9.20;;;;;;;12.30;nan;101037.19;5090337;28;20458;-83
2021/10/20 04:05:45;;;;;;;19.13;9.60;;;;;;;12.33;nan;101048.25;5088191;28;20032;-82
2021/10/20 04:08:10;;;;;;;15.77;9.50;;;;;;;12.39;nan;101036.50;5087077;28;20088;-83
2021/10/20 04:10:36;;;;;;;13.57;9.13;;;;;;;12.31;nan;101036.13;5091071;28;20111;-83
2021/10/20 04:13:01;;;;;;;18.80;10.52;;;;;;;12.32;nan;101037.75;5092161;28;20016;-83
2021/10/20 04:15:27;;;;;;;14.77;9.68;;;;;;;12.22;nan;101025.03;5099319;28;20115;-83
2021/10/20 04:17:53;;;;;;;16.13;9.75;;;;;;;12.22;nan;101025.03;5060317;28;20111;-83
2021/10/20 04:20:20;;;;;;;18.33;11.88;;;;;;;12.31;nan;101023.50;5087981;28;20030;-84
2021/10/20 04:22:50;;;;;;;18.73;11.32;;;;;;;12.30;nan;101021.06;5088184;28;20038;-82
2021/10/20 04:25:17;;;;;;;18.95;12.20;;;;;;;12.31;nan;101028.88;5088453;28;20049;-83
2021/10/20 04:27:44;;;;;;;18.15;10.68;;;;;;;12.31;nan;101014.63;5087726;28;20028;-83
2021/10/20 04:30:12;;;;;;;19.38;11.10;;;;;;;12.21;nan;101012.66;5087809;28;20028;-83
2021/10/20 04:32:38;;;;;;;19.45;11.73;;;;;;;12.23;nan;101010.53;5088489;28;20024;-83
2021/10/20 04:35:05;;;;;;;18.17;11.50;;;;;;;12.31;nan;101007.38;5092249;28;20024;-83
2021/10/20 04:37:31;;;;;;;20.45;12.25;;;;;;;12.26;nan;101004.66;5088174;28;20036;-82
2021/10/20 04:39:58;;;;;;;13.85;8.75;;;;;;;12.23;nan;101005.16;5088095;28;20039;-83
2021/10/20 04:42:25;;;;;;;18.35;10.18;;;;;;;12.30;nan;101000.38;5088056;28;20509;-85
2021/10/20 04:44:50;;;;;;;17.05;10.63;;;;;;;12.28;nan;100999.03;5095026;28;20027;-84
2021/10/20 04:47:16;;;;;;;16.95;10.63;;;;;;;12.22;nan;100982.03;5087502;28;20028;-84
2021/10/20 04:49:42;;;;;;;18.98;10.98;;;;;;;12.26;nan;100976.97;5104013;28;20520;-83
2021/10/20 04:52:08;;;;;;;16.80;11.10;;;;;;;12.22;nan;100973.19;5089290;28;20024;-84
2021/10/20 04:54:34;;;;;;;18.00;11.48;;;;;;;12.23;nan;100975.59;5106304;28;20121;-83
2021/10/20 04:56:59;;;;;;;15.18;9.43;;;;;;;12.22;nan;100976.69;5093320;28;20477;-83
2021/10/20 04:59:27;;;;;;;19.13;11.80;;;;;;;12.28;nan;100972.97;5091012;28;20039;-84
2021/10/20 05:01:53;;;;;;;19.83;11.48;;;;;;;12.22;nan;100962.44;5100503;28;20023;-84
2021/10/20 05:04:18;;;;;;;16.52;10.50;;;;;;;12.23;nan;100958.69;5090251;28;20026;-84
2021/10/20 05:06:44;;;;;;;17.83;12.27;;;;;;;12.24;nan;100963.78;5088754;28;20028;-84
2021/10/20 05:09:09;;;;;;;15.75;9.40;;;;;;;12.16;nan;100956.19;5089381;28;20089;-84
2021/10/20 05:11:35;;;;;;;18.23;10.73;;;;;;;12.22;nan;100947.13;5083938;28;20062;-84
2021/10/20 05:14:00;;;;;;;15.07;8.27;;;;;;;12.23;nan;100956.00;5106915;28;20036;-83
2021/10/20 05:16:26;;;;;;;13.95;9.23;;;;;;;12.20;nan;100943.03;5091363;28;20028;-83
2021/10/20 05:18:51;;;;;;;20.65;11.07;;;;;;;12.22;nan;100944.44;5101965;28;20016;-86
2021/10/20 05:21:17;;;;;;;17.20;11.48;;;;;;;12.19;nan;100942.22;5088754;28;20111;-84
2021/10/20 05:23:43;;;;;;;14.55;8.63;;;;;;;12.16;nan;100939.25;5086806;28;20559;-83
2021/10/20 05:26:08;;;;;;;20.60;10.68;;;;;;;12.21;nan;100937.44;5104936;28;20024;-84
2021/10/20 05:28:34;;;;;;;14.18;8.18;;;;;;;12.16;nan;100923.13;5090616;28;20030;-84
2021/10/20 05:31:00;;;;;;;15.57;9.13;;;;;;;12.17;nan;100928.25;5087491;28;20039;-83
2021/10/20 05:33:25;;;;;;;14.25;9.02;;;;;;;12.21;nan;100920.50;5092741;28;20107;-83
2021/10/20 05:35:51;;;;;;;12.55;8.68;;;;;;;12.15;nan;100927.69;5087482;28;20020;-83
2021/10/20 05:38:16;;;;;;;11.38;7.50;;;;;;;12.14;nan;100925.25;5089431;28;20028;-83
2021/10/20 05:40:42;;;;;;;14.10;8.80;;;;;;;12.13;nan;100919.09;5091307;28;20664;-84
2021/10/20 05:43:07;;;;;;;17.90;10.02;;;;;;;12.12;nan;100912.09;5084606;28;20722;-83
2021/10/20 05:45:33;;;;;;;13.25;8.93;;;;;;;12.02;nan;100915.47;5087381;28;20020;-82
2021/10/20 05:47:58;;;;;;;12.70;8.50;;;;;;;12.08;nan;100909.13;5084153;28;20016;-83
2021/10/20 05:50:24;;;;;;;12.18;7.80;;;;;;;12.03;nan;100905.56;5086276;28;20058;-85
2021/10/20 05:52:50;;;;;;;13.57;8.02;;;;;;;12.03;nan;100902.88;5100054;28;20040;-84
2021/10/20 05:55:16;;;;;;;14.05;8.10;;;;;;;12.02;nan;100901.25;5089447;28;20040;-84
2021/10/20 05:57:41;;;;;;;11.57;7.18;;;;;;;12.06;nan;100903.19;5086781;28;20028;-84
2021/10/20 06:00:10;;;;;;;8.70;5.82;;;;;;;12.09;nan;100901.88;5090262;28;20114;-84
2021/10/20 06:02:36;;;;;;;10.75;7.63;;;;;;;12.11;nan;100891.69;5091830;28;20499;-84
2021/10/20 06:05:02;;;;;;;11.68;7.40;;;;;;;12.13;nan;100897.59;5086321;28;20054;-84
2021/10/20 06:07:27;;;;;;;12.05;6.90;;;;;;;12.14;nan;100899.22;5101938;28;20031;-84
2021/10/20 06:09:53;;;;;;;12.48;7.22;;;;;;;12.17;nan;100898.69;5083762;28;20043;-85
2021/10/20 06:12:18;;;;;;;8.68;6.72;;;;;;;12.16;nan;100891.72;5085008;28;20109;-84
2021/10/20 06:14:44;;;;;;;11.27;6.78;;;;;;;12.22;nan;100900.66;5085287;28;20672;-83
2021/10/20 06:17:09;;;;;;;13.55;8.30;;;;;;;12.25;nan;100895.56;5089716;28;20027;-85
2021/10/20 06:19:35;;;;;;;9.73;6.32;;;;;;;12.28;nan;100905.81;5102721;28;20028;-83
2021/10/20 06:22:00;;;;;;;10.70;6.85;;;;;;;12.20;nan;100903.56;5087538;28;20054;-83
2021/10/20 06:24:26;;;;;;;11.95;6.57;;;;;;;12.21;nan;100897.16;5087294;28;20101;-83
2021/10/20 06:26:52;;;;;;;10.90;6.88;;;;;;;12.19;nan;100899.25;5088029;28;20023;-83
2021/10/20 06:29:19;;;;;;;11.52;7.03;;;;;;;12.23;nan;100894.22;5091699;28;20069;-84
2021/10/20 06:31:46;;;;;;;12.25;7.63;;;;;;;12.23;nan;100886.97;5086152;28;20031;-83
2021/10/20 06:34:12;;;;;;;10.32;6.53;;;;;;;12.26;nan;100883.75;5086256;28;20103;-84
2021/10/20 06:36:40;;;;;;;9.57;6.53;;;;;;;12.27;nan;100884.56;5090219;28;20027;-84
2021/10/20 06:39:06;;;;;;;9.98;6.07;;;;;;;12.30;nan;100886.75;5086730;28;20052;-85
2021/10/20 06:41:32;;;;;;;9.18;6.20;;;;;;;12.29;nan;100875.19;5084479;28;20059;-85
2021/10/20 06:43:58;;;;;;;10.93;7.18;;;;;;;12.30;nan;100868.75;5087163;28;20498;-84
2021/10/20 06:46:23;;;;;;;11.15;6.13;;;;;;;12.32;nan;100871.97;5086022;28;20076;-84
2021/10/20 06:48:49;;;;;;;10.00;5.97;;;;;;;12.42;nan;100867.75;5083409;28;20097;-84
2021/10/20 06:51:15;;;;;;;9.93;5.97;;;;;;;12.44;nan;100860.25;5085640;28;20023;-84
2021/10/20 06:53:40;;;;;;;7.90;5.70;;;;;;;12.41;nan;100858.91;5091779;28;20265;-84
2021/10/20 06:56:09;;;;;;;7.78;4.93;;;;;;;12.51;nan;100866.22;5086615;28;20655;-83
2021/10/20 06:58:36;;;;;;;9.15;5.45;;;;;;;12.56;nan;100869.72;5101945;28;20032;-83
2021/10/20 07:01:02;;;;;;;8.75;5.60;;;;;;;12.60;nan;100864.69;5091723;28;20158;-84
2021/10/20 07:03:28;;;;;;;8.30;5.55;;;;;;;12.66;nan;100866.31;5081643;28;20024;-85
2021/10/20 07:05:53;;;;;;;10.38;6.63;;;;;;;12.76;nan;100870.97;5086905;28;20031;-86
2021/10/20 07:08:19;;;;;;;6.97;5.10;;;;;;;12.72;nan;100865.28;5091239;28;20106;-84
2021/10/20 07:10:45;;;;;;;10.30;6.53;;;;;;;12.78;nan;100866.94;5104202;28;20616;-83
2021/10/20 07:13:11;;;;;;;9.25;5.65;;;;;;;12.83;nan;100863.47;5085292;28;20106;-85
2021/10/20 07:15:36;;;;;;;6.93;5.13;;;;;;;12.91;nan;100861.09;5089952;28;20035;-84
2021/10/20 07:18:02;;;;;;;11.20;6.35;;;;;;;13.15;nan;100871.44;5086723;28;20505;-85
2021/10/20 07:20:28;;;;;;;10.80;6.97;;;;;;;13.19;nan;100864.50;5083590;28;21301;-85
2021/10/20 07:22:54;;;;;;;8.20;5.68;;;;;;;13.34;nan;100867.25;5104996;28;20035;-83
2021/10/20 07:25:19;;;;;;;8.45;5.75;;;;;;;13.42;nan;100861.34;5085516;28;20043;-84
2021/10/20 07:27:48;;;;;;;14.32;7.68;;;;;;;13.42;nan;100858.66;5093487;28;20035;-85
2021/10/20 07:30:15;;;;;;;9.43;5.70;;;;;;;13.59;nan;100844.97;5099304;28;20493;-85
2021/10/20 07:32:42;;;;;;;6.80;5.00;;;;;;;13.60;nan;100842.03;5101062;28;20051;-84
2021/10/20 07:35:09;;;;;;;6.40;4.95;;;;;;;13.76;nan;100833.97;5088678;28;20024;-83
2021/10/20 07:37:35;;;;;;;8.48;5.35;;;;;;;13.95;nan;100837.78;5098639;28;20195;-84
2021/10/20 07:40:01;;;;;;;7.30;5.03;;;;;;;14.15;nan;100827.00;5100912;28;20028;-84
2021/10/20 07:42:26;;;;;;;6.07;4.65;;;;;;;14.16;nan;100827.81;5085922;28;20032;-84
2021/10/20 07:44:52;;;;;;;7.32;4.25;;;;;;;14.17;nan;100818.66;5087088;28;20105;-85
2021/10/20 07:47:20;;;;;;;10.63;4.72;;;;;;;14.29;nan;100824.59;5083854;28;20017;-84
2021/10/20 07:49:47;;;;;;;7.85;4.65;;;;;;;14.41;nan;100824.31;5078417;28;20039;-83
2021/10/20 07:52:13;;;;;;;6.22;4.95;;;;;;;14.53;nan;100824.84;5083860;28;20458;-85
2021/10/20 07:54:39;;;;;;;7.70;4.53;;;;;;;14.74;nan;100817.53;5084361;28;20043;-86
2021/10/20 07:57:05;;;;;;;7.68;4.88;;;;;;;14.91;nan;100826.13;5078156;28;20035;-84
2021/10/20 07:59:30;;;;;;;7.50;4.20;;;;;;;15.04;nan;100827.41;5075996;28;20129;-85
2021/10/20 08:01:56;;;;;;;6.63;4.45;;;;;;;15.16;nan;100822.53;5087172;28;20032;-85
2021/10/20 08:04:22;;;;;;;5.05;4.30;;;;;;;15.26;nan;100819.78;5080239;28;20064;-85
2021/10/20 08:06:48;;;;;;;6.30;4.45;;;;;;;15.40;nan;100809.16;5082982;28;20024;-85
2021/10/20 08:09:13;;;;;;;5.68;4.15;;;;;;;15.53;nan;100805.06;5076828;28;20043;-84
2021/10/20 08:11:39;;;;;;;5.75;3.90;;;;;;;15.48;nan;100811.28;5081665;28;20028;-86
2021/10/20 08:14:10;;;;;;;5.97;3.80;;;;;;;15.62;nan;100798.03;5101383;28;20024;-86
2021/10/20 08:16:36;;;;;;;7.93;4.22;;;;;;;15.70;nan;100809.03;5081595;28;20036;-85
2021/10/20 08:19:02;;;;;;;5.28;3.42;;;;;;;15.82;nan;100797.06;5084072;28;20035;-85
2021/10/20 08:21:28;;;;;;;5.25;3.85;;;;;;;15.75;nan;100797.38;5087553;28;20028;-85
2021/10/20 08:23:54;;;;;;;5.68;3.78;;;;;;;15.86;nan;100804.31;5105660;28;20103;-84
2021/10/20 08:26:20;;;;;;;5.68;3.95;;;;;;;15.90;nan;100799.97;5087263;28;20028;-84
2021/10/20 08:28:45;;;;;;;5.35;3.72;;;;;;;15.93;nan;100791.28;5089382;28;20386;-85
2021/10/20 08:31:13;;;;;;;6.57;3.85;;;;;;;16.15;nan;100790.03;5086940;28;20673;-86
2021/10/20 08:33:38;;;;;;;4.75;3.13;;;;;;;16.19;nan;100791.09;5104035;28;20024;-85
2021/10/20 08:36:04;;;;;;;6.53;3.72;;;;;;;16.15;nan;100771.91;5088222;28;20032;-84
2021/10/20 08:38:30;;;;;;;4.07;3.15;;;;;;;16.21;nan;100780.78;5084431;28;20020;-85
2021/10/20 08:40:56;;;;;;;4.43;3.20;;;;;;;16.17;nan;100772.44;5100359;28;20034;-86
2021/10/20 08:43:22;;;;;;;6.13;3.85;;;;;;;16.15;nan;100757.59;5085237;28;20028;-85
2021/10/20 08:45:49;;;;;;;6.82;3.35;;;;;;;16.07;nan;100759.03;5086935;28;20020;-85
2021/10/20 08:48:21;;;;;;;5.10;3.55;;;;;;;16.22;nan;100752.66;5083525;28;20490;-86
2021/10/20 08:51:06;;;;;;;4.68;3.30;;;;;;;16.37;nan;100755.22;5102776;28;20040;-85
2021/10/20 08:53:32;;;;;;;7.57;3.78;;;;;;;16.44;nan;100750.28;5101354;28;20020;-84
2021/10/20 08:56:00;;;;;;;7.10;3.63;;;;;;;16.51;nan;100749.91;5102504;28;20031;-84
2021/10/20 08:58:25;;;;;;;6.03;3.65;;;;;;;16.44;nan;100742.16;5085035;28;20402;-84
2021/10/20 09:00:51;;;;;;;4.35;3.35;;;;;;;16.34;nan;100742.28;5098561;28;20024;-83
2021/10/20 09:03:17;;;;;;;5.55;2.78;;;;;;;16.27;nan;100736.38;5086261;28;20051;-84
2021/10/20 09:05:42;;;;;;;4.22;2.95;;;;;;;16.13;nan;100736.25;5084279;28;20409;-84
2021/10/20 09:08:08;;;;;;;5.63;3.88;;;;;;;16.10;nan;100717.09;5081387;28;20546;-84
2021/10/20 09:10:34;;;;;;;4.47;3.40;;;;;;;16.00;nan;100724.22;5084634;28;20077;-84
2021/10/20 09:13:02;;;;;;;3.97;3.25;;;;;;;16.08;nan;100722.78;5080691;28;20032;-84
2021/10/20 09:15:31;;;;;;;5.43;3.35;;;;;;;16.06;nan;100713.34;5101714;28;20035;-85
2021/10/20 09:18:03;;;;;;;4.63;3.53;;;;;;;16.28;nan;100708.25;5085317;28;20032;-83
2021/10/20 09:20:34;;;;;;;5.38;3.47;;;;;;;16.46;nan;100707.53;5082477;28;20042;-84
2021/10/20 09:23:09;;;;;;;4.50;2.75;;;;;;;16.69;nan;100707.81;5084263;28;20027;-83
2021/10/20 09:25:42;;;;;;;7.53;3.40;;;;;;;16.76;nan;100694.75;5086496;28;20032;-84
2021/10/20 09:28:20;;;;;;;4.40;3.15;;;;;;;16.78;nan;100687.97;5081096;28;20496;-83
2021/10/20 09:30:46;;;;;;;5.68;2.60;;;;;;;16.73;nan;100660.97;5087849;28;20035;-84
2021/10/20 09:33:12;;;;;;;4.03;3.17;;;;;;;16.90;nan;100663.19;5101218;28;20802;-84
2021/10/20 09:35:38;;;;;;;6.10;3.03;;;;;;;17.01;nan;100675.47;5085114;28;20115;-84
2021/10/20 09:38:04;;;;;;;4.20;2.85;;;;;;;17.02;nan;100668.94;5084322;28;20260;-84
2021/10/20 09:40:36;;;;;;;7.38;3.80;;;;;;;17.28;nan;100668.59;5093962;28;20031;-84
2021/10/20 09:43:03;;;;;;;4.32;3.03;;;;;;;17.63;nan;100670.72;5104957;28;20092;-85
2021/10/20 09:45:35;;;;;;;4.45;3.35;;;;;;;17.70;nan;100656.81;5088491;28;20031;-84
2021/10/20 09:48:23;;;;;;;4.38;3.47;;;;;;;17.56;nan;100664.84;5093771;28;20032;-84
2021/10/20 09:50:54;;;;;;;4.90;2.80;;;;;;;17.37;nan;100677.63;5083101;28;20024;-83
2021/10/20 09:53:20;;;;;;;4.15;3.05;;;;;;;17.30;nan;100663.69;5089322;28;20132;-84
2021/10/20 09:55:45;;;;;;;5.30;3.60;;;;;;;17.25;nan;100656.44;5088969;28;20119;-84
2021/10/20 09:58:12;;;;;;;7.88;3.60;;;;;;;17.11;nan;100647.44;5095250;28;20019;-84
2021/10/20 10:00:38;;;;;;;6.15;3.28;;;;;;;17.25;nan;100647.53;5096508;28;20043;-84
2021/10/20 10:03:08;;;;;;;5.95;3.17;;;;;;;17.29;nan;100638.50;5106931;28;20016;-84
2021/10/20 10:05:34;;;;;;;5.63;3.28;;;;;;;17.29;nan;100626.88;5104095;28;20088;-84
2021/10/20 10:07:59;;;;;;;3.95;3.20;;;;;;;17.74;nan;100639.66;5084786;28;20393;-84
2021/10/20 10:10:25;;;;;;;4.38;2.38;;;;;;;18.13;nan;100624.81;5085837;28;20028;-84
2021/10/20 10:13:01;;;;;;;5.05;3.40;;;;;;;18.10;nan;100620.81;5101946;28;20024;-84
2021/10/20 10:15:29;;;;;;;5.82;3.42;;;;;;;17.84;nan;100629.75;5081845;28;20535;-84
2021/10/20 10:17:56;;;;;;;3.90;3.10;;;;;;;17.83;nan;100609.16;5092599;28;20755;-83
2021/10/20 10:20:31;;;;;;;8.48;4.05;;;;;;;17.82;nan;100613.78;5078241;28;20032;-84
2021/10/20 10:23:02;;;;;;;;;;;;;;;17.77;nan;100603.84;5085779;28;20027;-85
2021/10/20 10:25:36;;;;;;;4.68;3.50;;;;;;;17.83;nan;100598.31;5100711;28;19937;-84
2021/10/20 10:28:23;;;;;;;7.47;3.45;;;;;;;17.83;nan;100576.66;5100800;28;20035;-84
2021/10/20 10:31:04;;;;;;;4.45;3.35;;;;;;;17.93;nan;100587.28;5081480;28;20031;-85
2021/10/20 10:33:32;;;;;;;3.95;3.15;;;;;;;17.88;nan;100587.38;5083628;28;20483;-85
2021/10/20 10:36:11;;;;;;;4.45;3.47;;;;;;;17.91;nan;100584.88;5085749;28;20063;-85
2021/10/20 10:38:44;;;;;;;7.32;3.58;;;;;;;17.90;nan;100599.53;5082444;28;20085;-87
2021/10/20 10:41:29;;;;;;;5.33;3.20;;;;;;;17.90;nan;100575.13;5099284;28;20034;-85
2021/10/20 10:44:01;;;;;;;6.75;4.13;;;;;;;17.81;nan;100583.16;5098786;28;20615;-84
2021/10/20 10:46:29;;;;;;;5.05;3.80;;;;;;;18.02;nan;100571.94;5083998;28;20409;-85
2021/10/20 10:48:56;;;;;;;6.78;3.55;;;;;;;18.14;nan;100580.38;5087989;28;20020;-85
2021/10/20 10:51:22;;;;;;;4.55;3.35;;;;;;;18.21;nan;100575.31;5089634;28;20103;-84
2021/10/20 10:53:59;;;;;;;5.38;3.40;;;;;;;17.99;nan;100558.97;5084503;28;20569;-85
2021/10/20 10:56:25;;;;;;;5.72;3.00;;;;;;;17.66;nan;100553.63;5099951;28;20040;-86
2021/10/20 10:58:55;;;;;;;8.38;3.30;;;;;;;17.57;nan;100541.06;5086439;28;20020;-86
2021/10/20 11:01:50;;;;;;;4.95;3.20;;;;;;;17.56;nan;100534.84;5098527;28;20238;-86
2021/10/20 11:04:20;;;;;;;;;;;;;;;17.39;nan;100519.16;5067900;28;20054;-85
2021/10/20 11:06:46;;;;;;;5.53;3.13;;;;;;;17.51;nan;100513.25;5085660;28;19939;-84
2021/10/20 11:09:17;;;;;;;4.88;3.28;;;;;;;17.46;nan;100514.19;5083118;28;20023;-85
2021/10/20 11:11:53;;;;;;;3.80;2.63;;;;;;;17.57;nan;100501.22;5084451;28;20024;-84
2021/10/20 11:14:21;;;;;;;5.25;2.92;;;;;;;17.45;nan;100479.25;5082700;28;20630;-85
2021/10/20 11:16:55;;;;;;;6.25;3.25;;;;;;;17.39;nan;100477.75;5084497;28;20032;-85
2021/10/20 11:19:21;;;;;;;3.80;2.83;;;;;;;17.33;nan;100471.63;5062135;28;20023;-84
2021/10/20 11:21:47;;;;;;;5.80;3.35;;;;;;;17.25;nan;100464.22;5080699;28;20081;-84
2021/10/20 11:24:14;;;;;;;4.68;3.40;;;;;;;17.27;nan;100455.78;5080933;28;20490;-85
2021/10/20 11:26:40;;;;;;;4.82;3.30;;;;;;;17.19;nan;100449.94;5085340;28;20065;-85
2021/10/20 11:29:09;;;;;;;4.57;3.47;;;;;;;17.37;nan;100439.31;5088010;28;20027;-86
2021/10/20 11:31:48;;;;;;;5.78;3.58;;;;;;;17.26;nan;100444.16;5083393;28;20055;-85
2021/10/20 11:34:18;;;;;;;6.47;3.58;;;;;;;17.45;nan;100457.59;5100983;28;20034;-85
2021/10/20 11:36:44;;;;;;;6.90;4.30;;;;;;;17.60;nan;100457.31;5067601;28;20036;-85